sensor_id;sensor_type;location;lat;lon;timestamp;pressure;altitude;pressure_sealevel;temperature;humidity
41513;BME280;27244;59.940;30.280;2023-06-01T00:02:11;100524.53;;;22.06;42.08
41513;BME280;27244;59.940;30.280;2023-06-01T00:04:39;100516.13;;;22.06;42.02
41513;BME280;27244;59.940;30.280;2023-06-01T00:07:07;100517.75;;;22.04;41.80
41513;BME280;27244;59.940;30.280;2023-06-01T00:09:34;100516.97;;;22.03;42.07
41513;BME280;27244;59.940;30.280;2023-06-01T00:12:01;100513.31;;;22.06;42.44
41513;BME280;27244;59.940;30.280;2023-06-01T00:14:28;100520.94;;;22.06;41.86
41513;BME280;27244;59.940;30.280;2023-06-01T00:16:56;100523.28;;;22.07;41.89
41513;BME280;27244;59.940;30.280;2023-06-01T00:19:24;100518.13;;;22.06;41.58
41513;BME280;27244;59.940;30.280;2023-06-01T00:21:51;100516.13;;;22.06;41.65
41513;BME280;27244;59.940;30.280;2023-06-01T00:24:19;100515.31;;;22.06;41.44
41513;BME280;27244;59.940;30.280;2023-06-01T00:26:46;100520.94;;;22.06;41.33
41513;BME280;27244;59.940;30.280;2023-06-01T00:29:13;100510.94;;;22.05;41.11
41513;BME280;27244;59.940;30.280;2023-06-01T00:31:40;100512.50;;;22.06;41.10
41513;BME280;27244;59.940;30.280;2023-06-01T00:34:08;100504.88;;;22.06;40.76
41513;BME280;27244;59.940;30.280;2023-06-01T00:36:35;100506.09;;;22.05;40.95
41513;BME280;27244;59.940;30.280;2023-06-01T00:39:02;100510.13;;;22.04;40.85
41513;BME280;27244;59.940;30.280;2023-06-01T00:41:32;100504.19;;;22.02;40.79
41513;BME280;27244;59.940;30.280;2023-06-01T00:43:59;100498.09;;;22.04;40.54
41513;BME280;27244;59.940;30.280;2023-06-01T00:46:27;100495.75;;;22.02;40.78
41513;BME280;27244;59.940;30.280;2023-06-01T00:48:55;100491.69;;;22.03;40.67
41513;BME280;27244;59.940;30.280;2023-06-01T00:51:24;100492.06;;;22.05;41.06
41513;BME280;27244;59.940;30.280;2023-06-01T00:53:51;100486.06;;;22.03;40.90
41513;BME280;27244;59.940;30.280;2023-06-01T00:56:18;100498.91;;;22.04;40.79
41513;BME280;27244;59.940;30.280;2023-06-01T00:58:46;100492.47;;;22.04;41.26
41513;BME280;27244;59.940;30.280;2023-06-01T01:01:13;100486.06;;;22.03;41.07
41513;BME280;27244;59.940;30.280;2023-06-01T01:03:48;100482.03;;;22.04;41.12
41513;BME280;27244;59.940;30.280;2023-06-01T01:06:31;100476.78;;;22.06;41.15
41513;BME280;27244;59.940;30.280;2023-06-01T01:09:20;100472.22;;;22.13;41.22
41513;BME280;27244;59.940;30.280;2023-06-01T01:11:54;100475.53;;;22.07;40.94
41513;BME280;27244;59.940;30.280;2023-06-01T01:14:30;100475.53;;;22.07;42.10
41513;BME280;27244;59.940;30.280;2023-06-01T01:17:07;100477.91;;;22.09;41.69
41513;BME280;27244;59.940;30.280;2023-06-01T01:19:57;100479.84;;;22.12;42.01
41513;BME280;27244;59.940;30.280;2023-06-01T01:22:44;100482.56;;;22.16;42.04
41513;BME280;27244;59.940;30.280;2023-06-01T01:25:21;100485.13;;;22.10;42.34
41513;BME280;27244;59.940;30.280;2023-06-01T01:28:31;100500.56;;;22.18;42.23
41513;BME280;27244;59.940;30.280;2023-06-01T01:31:00;100494.50;;;22.03;42.51
41513;BME280;27244;59.940;30.280;2023-06-01T01:33:29;100477.66;;;22.03;42.39
41513;BME280;27244;59.940;30.280;2023-06-01T01:35:56;100484.16;;;22.00;42.86
41513;BME280;27244;59.940;30.280;2023-06-01T01:38:23;100490.13;;;22.02;42.65
41513;BME280;27244;59.940;30.280;2023-06-01T01:40:50;100487.31;;;22.02;42.85
41513;BME280;27244;59.940;30.280;2023-06-01T01:43:18;100495.75;;;22.02;42.77
41513;BME280;27244;59.940;30.280;2023-06-01T01:45:51;100485.22;;;22.06;42.76
41513;BME280;27244;59.940;30.280;2023-06-01T01:48:25;100486.44;;;22.05;42.89
41513;BME280;27244;59.940;30.280;2023-06-01T01:50:58;100487.66;;;22.04;42.71
41513;BME280;27244;59.940;30.280;2023-06-01T01:53:28;100479.66;;;22.03;42.73
41513;BME280;27244;59.940;30.280;2023-06-01T01:55:56;100486.53;;;22.02;42.88
41513;BME280;27244;59.940;30.280;2023-06-01T01:58:25;100476.94;;;21.99;42.86
41513;BME280;27244;59.940;30.280;2023-06-01T02:00:54;100475.63;;;22.04;42.79
41513;BME280;27244;59.940;30.280;2023-06-01T02:03:22;100474.13;;;21.99;42.60
41513;BME280;27244;59.940;30.280;2023-06-01T02:05:49;100475.72;;;22.00;42.93
41513;BME280;27244;59.940;30.280;2023-06-01T02:08:17;100472.13;;;22.00;42.63
41513;BME280;27244;59.940;30.280;2023-06-01T02:10:43;100474.13;;;21.99;42.47
41513;BME280;27244;59.940;30.280;2023-06-01T02:13:12;100485.38;;;21.99;42.43
41513;BME280;27244;59.940;30.280;2023-06-01T02:15:39;100479.75;;;21.99;42.22
41513;BME280;27244;59.940;30.280;2023-06-01T02:18:07;100475.72;;;22.00;42.51
41513;BME280;27244;59.940;30.280;2023-06-01T02:20:34;100481.34;;;22.00;42.72
41513;BME280;27244;59.940;30.280;2023-06-01T02:23:01;100479.75;;;21.99;43.09
41513;BME280;27244;59.940;30.280;2023-06-01T02:25:28;100484.16;;;22.00;42.65
41513;BME280;27244;59.940;30.280;2023-06-01T02:27:55;100478.19;;;21.98;42.29
41513;BME280;27244;59.940;30.280;2023-06-01T02:30:21;100484.16;;;22.00;42.18
41513;BME280;27244;59.940;30.280;2023-06-01T02:32:48;100481.34;;;22.00;41.70
41513;BME280;27244;59.940;30.280;2023-06-01T02:35:17;100474.50;;;22.01;41.64
41513;BME280;27244;59.940;30.280;2023-06-01T02:37:44;100476.19;;;21.99;42.59
41513;BME280;27244;59.940;30.280;2023-06-01T02:40:11;100475.72;;;22.00;42.77
41513;BME280;27244;59.940;30.280;2023-06-01T02:42:39;100482.13;;;22.01;42.50
41513;BME280;27244;59.940;30.280;2023-06-01T02:45:10;100479.59;;;22.06;42.44
41513;BME280;27244;59.940;30.280;2023-06-01T02:47:36;100476.09;;;22.02;42.64
41513;BME280;27244;59.940;30.280;2023-06-01T02:50:04;100472.56;;;21.98;42.62
41513;BME280;27244;59.940;30.280;2023-06-01T02:52:36;100466.06;;;22.01;42.52
41513;BME280;27244;59.940;30.280;2023-06-01T02:55:04;100470.09;;;22.00;42.96
41513;BME280;27244;59.940;30.280;2023-06-01T02:57:57;100474.50;;;22.01;42.98
41513;BME280;27244;59.940;30.280;2023-06-01T03:00:24;100469.31;;;22.00;42.62
41513;BME280;27244;59.940;30.280;2023-06-01T03:02:52;100476.59;;;21.97;43.00
41513;BME280;27244;59.940;30.280;2023-06-01T03:05:20;100478.53;;;22.00;42.57
41513;BME280;27244;59.940;30.280;2023-06-01T03:08:08;100481.69;;;22.02;42.66
41513;BME280;27244;59.940;30.280;2023-06-01T03:10:35;100472.13;;;22.00;42.63
41513;BME280;27244;59.940;30.280;2023-06-01T03:13:10;100473.78;;;21.97;42.81
41513;BME280;27244;59.940;30.280;2023-06-01T03:15:37;100472.56;;;21.98;42.40
41513;BME280;27244;59.940;30.280;2023-06-01T03:18:04;100473.38;;;21.99;42.55
41513;BME280;27244;59.940;30.280;2023-06-01T03:20:32;100484.59;;;21.99;42.49
41513;BME280;27244;59.940;30.280;2023-06-01T03:22:59;100486.63;;;21.98;42.38
41513;BME280;27244;59.940;30.280;2023-06-01T03:25:28;100482.22;;;21.97;42.77
41513;BME280;27244;59.940;30.280;2023-06-01T03:27:55;100481.00;;;21.98;42.74
41513;BME280;27244;59.940;30.280;2023-06-01T03:30:22;100476.59;;;21.97;42.96
41513;BME280;27244;59.940;30.280;2023-06-01T03:32:49;100475.38;;;21.98;42.79
41513;BME280;27244;59.940;30.280;2023-06-01T03:35:17;100481.44;;;21.97;42.67
41513;BME280;27244;59.940;30.280;2023-06-01T03:37:46;100479.41;;;21.97;43.26
41513;BME280;27244;59.940;30.280;2023-06-01T03:40:16;100479.41;;;21.97;43.09
41513;BME280;27244;59.940;30.280;2023-06-01T03:42:46;100474.94;;;22.00;42.95
41513;BME280;27244;59.940;30.280;2023-06-01T03:45:15;100465.38;;;21.97;43.00
41513;BME280;27244;59.940;30.280;2023-06-01T03:47:42;100468.50;;;21.99;42.96
41513;BME280;27244;59.940;30.280;2023-06-01T03:50:10;100458.97;;;21.97;43.20
41513;BME280;27244;59.940;30.280;2023-06-01T03:52:37;100454.94;;;21.98;42.75
41513;BME280;27244;59.940;30.280;2023-06-01T03:55:05;100450.53;;;21.97;42.93
41513;BME280;27244;59.940;30.280;2023-06-01T03:58:16;100458.88;;;22.00;42.80
41513;BME280;27244;59.940;30.280;2023-06-01T04:00:44;100457.28;;;21.99;43.06
41513;BME280;27244;59.940;30.280;2023-06-01T04:03:12;100456.50;;;21.99;42.93
41513;BME280;27244;59.940;30.280;2023-06-01T04:05:40;100450.09;;;21.98;43.29
41513;BME280;27244;59.940;30.280;2023-06-01T04:08:15;100447.38;;;21.95;43.16
41513;BME280;27244;59.940;30.280;2023-06-01T04:10:45;100457.75;;;21.98;43.06
41513;BME280;27244;59.940;30.280;2023-06-01T04:13:12;100446.50;;;21.98;42.88
41513;BME280;27244;59.940;30.280;2023-06-01T04:15:40;100447.28;;;21.98;42.17
41513;BME280;27244;59.940;30.280;2023-06-01T04:18:08;100444.56;;;21.95;43.16
41513;BME280;27244;59.940;30.280;2023-06-01T04:20:49;100448.09;;;21.99;43.07
41513;BME280;27244;59.940;30.280;2023-06-01T04:23:16;100437.28;;;21.97;42.72
41513;BME280;27244;59.940;30.280;2023-06-01T04:25:43;100442.91;;;21.97;42.66
41513;BME280;27244;59.940;30.280;2023-06-01T04:28:12;100445.72;;;21.97;42.70
41513;BME280;27244;59.940;30.280;2023-06-01T04:30:38;100442.09;;;21.97;42.39
41513;BME280;27244;59.940;30.280;2023-06-01T04:33:07;100442.91;;;21.97;42.94
41513;BME280;27244;59.940;30.280;2023-06-01T04:35:35;100447.72;;;21.97;42.79
41513;BME280;27244;59.940;30.280;2023-06-01T04:38:03;100443.31;;;21.96;42.91
41513;BME280;27244;59.940;30.280;2023-06-01T04:40:33;100435.59;;;22.00;43.09
41513;BME280;27244;59.940;30.280;2023-06-01T04:43:02;100444.50;;;21.98;43.08
41513;BME280;27244;59.940;30.280;2023-06-01T04:45:30;100437.38;;;21.94;43.12
41513;BME280;27244;59.940;30.280;2023-06-01T04:47:59;100436.84;;;21.99;43.07
41513;BME280;27244;59.940;30.280;2023-06-01T04:50:37;100442.03;;;22.00;42.96
41513;BME280;27244;59.940;30.280;2023-06-01T04:53:05;100436.06;;;21.98;42.95
41513;BME280;27244;59.940;30.280;2023-06-01T04:55:32;100437.28;;;21.97;42.72
41513;BME280;27244;59.940;30.280;2023-06-01T04:57:58;100442.09;;;21.97;42.95
41513;BME280;27244;59.940;30.280;2023-06-01T05:00:25;100443.69;;;21.98;42.87
41513;BME280;27244;59.940;30.280;2023-06-01T05:02:52;100427.03;;;21.91;42.71
41513;BME280;27244;59.940;30.280;2023-06-01T05:05:19;100438.06;;;21.98;42.97
41513;BME280;27244;59.940;30.280;2023-06-01T05:07:50;100432.00;;;21.99;43.06
41513;BME280;27244;59.940;30.280;2023-06-01T05:10:17;100426.84;;;21.98;42.87
41513;BME280;27244;59.940;30.280;2023-06-01T05:12:46;100426.06;;;21.97;42.82
41513;BME280;27244;59.940;30.280;2023-06-01T05:15:15;100422.09;;;21.95;42.69
41513;BME280;27244;59.940;30.280;2023-06-01T05:17:42;100430.09;;;21.96;43.03
41513;BME280;27244;59.940;30.280;2023-06-01T05:20:13;100436.84;;;21.99;42.99
41513;BME280;27244;59.940;30.280;2023-06-01T05:22:43;100433.25;;;21.98;43.04
41513;BME280;27244;59.940;30.280;2023-06-01T05:25:12;100432.78;;;22.00;43.09
41513;BME280;27244;59.940;30.280;2023-06-01T05:27:39;100430.44;;;21.98;42.92
41513;BME280;27244;59.940;30.280;2023-06-01T05:30:07;100418.94;;;21.93;43.18
41513;BME280;27244;59.940;30.280;2023-06-01T05:32:34;100428.84;;;21.97;43.04
41513;BME280;27244;59.940;30.280;2023-06-01T05:35:14;100428.84;;;21.97;43.17
41513;BME280;27244;59.940;30.280;2023-06-01T05:37:41;100431.66;;;21.97;42.99
41513;BME280;27244;59.940;30.280;2023-06-01T05:40:09;100425.00;;;21.91;43.04
41513;BME280;27244;59.940;30.280;2023-06-01T05:42:39;100426.06;;;21.97;43.10
41513;BME280;27244;59.940;30.280;2023-06-01T05:45:12;100420.84;;;21.96;43.03
41513;BME280;27244;59.940;30.280;2023-06-01T05:47:40;100426.06;;;21.97;42.82
41513;BME280;27244;59.940;30.280;2023-06-01T05:50:09;100416.50;;;21.95;42.97
41513;BME280;27244;59.940;30.280;2023-06-01T05:52:36;100426.06;;;21.97;42.90
41513;BME280;27244;59.940;30.280;2023-06-01T05:55:05;100423.75;;;21.92;42.90
41513;BME280;27244;59.940;30.280;2023-06-01T05:57:36;100425.16;;;22.00;42.73
41513;BME280;27244;59.940;30.280;2023-06-01T06:00:05;100420.44;;;21.97;42.72
41513;BME280;27244;59.940;30.280;2023-06-01T06:02:41;100425.25;;;21.97;42.90
41513;BME280;27244;59.940;30.280;2023-06-01T06:05:08;100412.53;;;21.92;42.88
41513;BME280;27244;59.940;30.280;2023-06-01T06:07:36;100428.06;;;21.97;42.92
41513;BME280;27244;59.940;30.280;2023-06-01T06:10:03;100422.09;;;21.95;42.80
41513;BME280;27244;59.940;30.280;2023-06-01T06:12:30;100418.84;;;21.96;43.15
41513;BME280;27244;59.940;30.280;2023-06-01T06:14:57;100424.47;;;21.96;42.53
41513;BME280;27244;59.940;30.280;2023-06-01T06:17:26;100421.75;;;21.93;42.78
41513;BME280;27244;59.940;30.280;2023-06-01T06:19:52;100421.31;;;21.94;43.14
41513;BME280;27244;59.940;30.280;2023-06-01T06:22:19;100422.09;;;21.95;42.85
41513;BME280;27244;59.940;30.280;2023-06-01T06:24:46;100418.94;;;21.93;42.99
41513;BME280;27244;59.940;30.280;2023-06-01T06:27:15;100426.13;;;21.94;42.91
41513;BME280;27244;59.940;30.280;2023-06-01T06:29:42;100432.56;;;21.94;42.54
41513;BME280;27244;59.940;30.280;2023-06-01T06:32:09;100445.38;;;21.95;42.88
41513;BME280;27244;59.940;30.280;2023-06-01T06:34:37;100436.94;;;21.95;42.64
41513;BME280;27244;59.940;30.280;2023-06-01T06:37:06;100446.59;;;21.94;42.46
41513;BME280;27244;59.940;30.280;2023-06-01T06:39:33;100448.94;;;21.96;42.28
41513;BME280;27244;59.940;30.280;2023-06-01T06:42:01;100447.38;;;21.95;42.02
41513;BME280;27244;59.940;30.280;2023-06-01T06:44:28;100451.31;;;21.97;42.10
41513;BME280;27244;59.940;30.280;2023-06-01T06:46:57;100445.28;;;21.99;42.60
41513;BME280;27244;59.940;30.280;2023-06-01T06:49:25;100450.53;;;21.97;42.27
41513;BME280;27244;59.940;30.280;2023-06-01T06:51:53;100460.09;;;21.99;42.79
41513;BME280;27244;59.940;30.280;2023-06-01T06:54:21;100446.03;;;21.99;42.56
41513;BME280;27244;59.940;30.280;2023-06-01T06:56:48;100451.25;;;22.01;42.28
41513;BME280;27244;59.940;30.280;2023-06-01T06:59:15;100446.84;;;22.00;42.42
41513;BME280;27244;59.940;30.280;2023-06-01T07:01:42;100452.03;;;22.01;42.63
41513;BME280;27244;59.940;30.280;2023-06-01T07:04:09;100450.81;;;22.02;42.41
41513;BME280;27244;59.940;30.280;2023-06-01T07:06:36;100447.22;;;22.02;42.40
41513;BME280;27244;59.940;30.280;2023-06-01T07:09:05;100453.97;;;22.04;42.60
41513;BME280;27244;59.940;30.280;2023-06-01T07:11:34;100447.91;;;22.06;42.45
41513;BME280;27244;59.940;30.280;2023-06-01T07:14:01;100452.28;;;22.07;42.58
41513;BME280;27244;59.940;30.280;2023-06-01T07:16:28;100445.91;;;22.06;42.56
41513;BME280;27244;59.940;30.280;2023-06-01T07:18:55;100456.25;;;22.10;42.42
41513;BME280;27244;59.940;30.280;2023-06-01T07:21:22;100459.38;;;22.12;42.08
41513;BME280;27244;59.940;30.280;2023-06-01T07:23:49;100446.94;;;22.13;42.59
41513;BME280;27244;59.940;30.280;2023-06-01T07:26:17;100444.13;;;22.13;42.65
41513;BME280;27244;59.940;30.280;2023-06-01T07:28:44;100454.22;;;22.10;42.61
41513;BME280;27244;59.940;30.280;2023-06-01T07:31:11;100443.41;;;22.08;42.95
41513;BME280;27244;59.940;30.280;2023-06-01T07:33:38;100443.09;;;22.06;43.37
41513;BME280;27244;59.940;30.280;2023-06-01T07:36:06;100448.69;;;22.06;42.97
41513;BME280;27244;59.940;30.280;2023-06-01T07:38:33;100448.69;;;22.06;42.77
41513;BME280;27244;59.940;30.280;2023-06-01T07:41:00;100445.53;;;22.04;43.17
41513;BME280;27244;59.940;30.280;2023-06-01T07:43:28;100446.66;;;22.07;43.54
41513;BME280;27244;59.940;30.280;2023-06-01T07:45:55;100446.31;;;22.05;43.28
41513;BME280;27244;59.940;30.280;2023-06-01T07:48:23;100443.59;;;22.01;41.80
41513;BME280;27244;59.940;30.280;2023-06-01T07:50:50;100449.22;;;22.01;42.22
41513;BME280;27244;59.940;30.280;2023-06-01T07:53:18;100453.97;;;22.04;41.62
41513;BME280;27244;59.940;30.280;2023-06-01T07:55:45;100453.97;;;22.04;41.82
41513;BME280;27244;59.940;30.280;2023-06-01T07:58:14;100450.81;;;22.02;41.73
41513;BME280;27244;59.940;30.280;2023-06-01T08:00:42;100452.72;;;22.05;41.51
41513;BME280;27244;59.940;30.280;2023-06-01T08:03:09;100452.97;;;22.11;41.50
41513;BME280;27244;59.940;30.280;2023-06-01T08:05:36;100452.97;;;22.11;41.43
41513;BME280;27244;59.940;30.280;2023-06-01T08:08:03;100463.31;;;22.14;41.45
41513;BME280;27244;59.940;30.280;2023-06-01T08:10:30;100461.31;;;22.15;41.57
41513;BME280;27244;59.940;30.280;2023-06-01T08:12:57;100458.88;;;22.17;41.42
41513;BME280;27244;59.940;30.280;2023-06-01T08:15:25;100458.88;;;22.17;41.56
41513;BME280;27244;59.940;30.280;2023-06-01T08:17:56;100467.22;;;22.20;41.56
41513;BME280;27244;59.940;30.280;2023-06-01T08:20:23;100470.00;;;22.20;41.37
41513;BME280;27244;59.940;30.280;2023-06-01T08:22:52;100461.69;;;22.17;41.65
41513;BME280;27244;59.940;30.280;2023-06-01T08:25:19;100457.72;;;22.14;41.57
41513;BME280;27244;59.940;30.280;2023-06-01T08:27:46;100470.00;;;22.20;41.72
41513;BME280;27244;59.940;30.280;2023-06-01T08:30:13;100472.81;;;22.20;41.62
41513;BME280;27244;59.940;30.280;2023-06-01T08:32:40;100473.16;;;22.22;41.66
41513;BME280;27244;59.940;30.280;2023-06-01T08:35:08;100474.28;;;22.25;41.63
41513;BME280;27244;59.940;30.280;2023-06-01T08:37:36;100479.91;;;22.25;41.58
41513;BME280;27244;59.940;30.280;2023-06-01T08:40:03;100479.25;;;22.21;41.90
41513;BME280;27244;59.940;30.280;2023-06-01T08:42:39;100492.66;;;22.29;41.67
41513;BME280;27244;59.940;30.280;2023-06-01T08:45:11;100477.09;;;22.25;41.63
41513;BME280;27244;59.940;30.280;2023-06-01T08:47:38;100488.00;;;22.23;41.53
41513;BME280;27244;59.940;30.280;2023-06-01T08:50:08;100486.00;;;22.23;41.30
41513;BME280;27244;59.940;30.280;2023-06-01T08:52:36;100488.81;;;22.23;41.20
41513;BME280;27244;59.940;30.280;2023-06-01T08:55:05;100483.19;;;22.23;41.09
41513;BME280;27244;59.940;30.280;2023-06-01T08:57:32;100492.03;;;22.22;41.51
41513;BME280;27244;59.940;30.280;2023-06-01T08:59:59;100496.88;;;22.21;40.88
41513;BME280;27244;59.940;30.280;2023-06-01T09:02:26;100504.06;;;22.22;41.38
41513;BME280;27244;59.940;30.280;2023-06-01T09:04:53;100507.34;;;22.21;41.34
41513;BME280;27244;59.940;30.280;2023-06-01T09:07:41;100498.34;;;22.26;41.59
41513;BME280;27244;59.940;30.280;2023-06-01T09:10:09;100501.53;;;22.12;41.92
41513;BME280;27244;59.940;30.280;2023-06-01T09:12:37;100509.34;;;22.20;41.88
41513;BME280;27244;59.940;30.280;2023-06-01T09:15:09;100523.66;;;22.26;41.75
41513;BME280;27244;59.940;30.280;2023-06-01T09:17:36;100517.69;;;22.24;41.85
41513;BME280;27244;59.940;30.280;2023-06-01T09:20:04;100528.47;;;22.25;41.65
41513;BME280;27244;59.940;30.280;2023-06-01T09:22:40;100526.72;;;22.31;41.97
41513;BME280;27244;59.940;30.280;2023-06-01T09:25:07;100516.44;;;22.25;41.60
41513;BME280;27244;59.940;30.280;2023-06-01T09:27:43;100523.13;;;22.31;41.82
41513;BME280;27244;59.940;30.280;2023-06-01T09:30:11;100515.75;;;22.21;41.95
41513;BME280;27244;59.940;30.280;2023-06-01T09:32:38;100520.13;;;22.22;41.62
41513;BME280;27244;59.940;30.280;2023-06-01T09:35:05;100517.31;;;22.22;41.49
41513;BME280;27244;59.940;30.280;2023-06-01T09:37:33;100527.69;;;22.25;41.49
41513;BME280;27244;59.940;30.280;2023-06-01T09:40:15;100523.84;;;22.35;41.15
41513;BME280;27244;59.940;30.280;2023-06-01T09:42:43;100514.50;;;22.22;41.14
41513;BME280;27244;59.940;30.280;2023-06-01T09:45:17;100536.38;;;22.30;41.15
41513;BME280;27244;59.940;30.280;2023-06-01T09:47:46;100526.47;;;22.26;40.89
41513;BME280;27244;59.940;30.280;2023-06-01T09:50:34;100531.81;;;22.36;40.86
41513;BME280;27244;59.940;30.280;2023-06-01T09:53:04;100532.53;;;22.24;40.79
41513;BME280;27244;59.940;30.280;2023-06-01T09:55:32;100536.91;;;22.25;40.95
41513;BME280;27244;59.940;30.280;2023-06-01T09:58:18;100550.25;;;22.37;40.59
41513;BME280;27244;59.940;30.280;2023-06-01T10:00:48;100542.88;;;22.27;40.91
41513;BME280;27244;59.940;30.280;2023-06-01T10:03:17;100544.19;;;22.23;41.29
41513;BME280;27244;59.940;30.280;2023-06-01T10:05:45;100543.88;;;22.21;41.62
41513;BME280;27244;59.940;30.280;2023-06-01T10:08:13;100542.69;;;22.18;41.30
41513;BME280;27244;59.940;30.280;2023-06-01T10:10:43;100547.53;;;22.18;40.88
41513;BME280;27244;59.940;30.280;2023-06-01T10:13:11;100563.69;;;22.14;41.32
41513;BME280;27244;59.940;30.280;2023-06-01T10:15:38;100556.50;;;22.13;41.29
41513;BME280;27244;59.940;30.280;2023-06-01T10:18:06;100559.72;;;22.11;41.49
41513;BME280;27244;59.940;30.280;2023-06-01T10:20:34;100565.00;;;22.09;40.83
41513;BME280;27244;59.940;30.280;2023-06-01T10:23:02;100563.00;;;22.10;41.28
41513;BME280;27244;59.940;30.280;2023-06-01T10:25:32;100563.00;;;22.10;41.24
41513;BME280;27244;59.940;30.280;2023-06-01T10:28:04;100570.09;;;22.14;41.65
41513;BME280;27244;59.940;30.280;2023-06-01T10:30:33;100571.41;;;22.10;41.04
41513;BME280;27244;59.940;30.280;2023-06-01T10:33:00;100583.88;;;22.08;41.42
41513;BME280;27244;59.940;30.280;2023-06-01T10:36:00;100585.56;;;22.22;41.16
41513;BME280;27244;59.940;30.280;2023-06-01T10:38:28;100578.69;;;22.07;41.11
41513;BME280;27244;59.940;30.280;2023-06-01T10:43:53;100589.16;;;22.06;42.01
41513;BME280;27244;59.940;30.280;2023-06-01T10:46:39;100605.69;;;22.21;41.27
41513;BME280;27244;59.940;30.280;2023-06-01T10:49:12;100596.25;;;22.11;41.53
41513;BME280;27244;59.940;30.280;2023-06-01T10:51:40;100598.72;;;22.09;41.89
41513;BME280;27244;59.940;30.280;2023-06-01T10:54:26;100619.72;;;22.21;41.34
41513;BME280;27244;59.940;30.280;2023-06-01T10:57:17;100617.25;;;22.23;41.61
41513;BME280;27244;59.940;30.280;2023-06-01T11:00:13;100615.66;;;22.22;41.62
41513;BME280;27244;59.940;30.280;2023-06-01T11:02:47;100618.63;;;22.15;41.02
41513;BME280;27244;59.940;30.280;2023-06-01T11:05:49;100627.69;;;22.22;41.24
41513;BME280;27244;59.940;30.280;2023-06-01T11:08:51;100618.94;;;22.20;41.51
41513;BME280;27244;59.940;30.280;2023-06-01T11:11:21;100611.25;;;22.04;41.11
41513;BME280;27244;59.940;30.280;2023-06-01T11:14:09;100617.41;;;22.16;41.52
41513;BME280;27244;59.940;30.280;2023-06-01T11:16:38;100618.00;;;22.07;41.47
41513;BME280;27244;59.940;30.280;2023-06-01T11:19:06;100612.84;;;22.05;40.82
41513;BME280;27244;59.940;30.280;2023-06-01T11:21:36;100626.00;;;22.08;40.84
41513;BME280;27244;59.940;30.280;2023-06-01T11:24:07;100624.41;;;22.07;40.72
41513;BME280;27244;59.940;30.280;2023-06-01T11:26:37;100626.44;;;22.07;41.34
41513;BME280;27244;59.940;30.280;2023-06-01T11:29:09;100619.34;;;22.02;41.79
41513;BME280;27244;59.940;30.280;2023-06-01T11:31:42;100619.19;;;22.10;41.44
41513;BME280;27244;59.940;30.280;2023-06-01T11:34:10;100630.91;;;22.04;41.78
41513;BME280;27244;59.940;30.280;2023-06-01T11:36:42;100631.72;;;22.05;41.59
41513;BME280;27244;59.940;30.280;2023-06-01T11:39:20;100643.59;;;22.13;41.33
41513;BME280;27244;59.940;30.280;2023-06-01T11:41:49;100631.78;;;22.01;41.41
41513;BME280;27244;59.940;30.280;2023-06-01T11:44:16;100624.97;;;22.02;41.51
41513;BME280;27244;59.940;30.280;2023-06-01T11:46:57;100639.19;;;22.12;41.28
41513;BME280;27244;59.940;30.280;2023-06-01T11:49:24;100635.75;;;22.04;41.59
41513;BME280;27244;59.940;30.280;2023-06-01T11:51:52;100637.75;;;22.03;42.32
41513;BME280;27244;59.940;30.280;2023-06-01T11:54:22;100644.16;;;22.04;42.90
41513;BME280;27244;59.940;30.280;2023-06-01T11:56:50;100654.19;;;22.05;44.12
41513;BME280;27244;59.940;30.280;2023-06-01T11:59:18;100652.16;;;22.05;43.39
41513;BME280;27244;59.940;30.280;2023-06-01T12:01:47;100650.94;;;22.06;44.13
41513;BME280;27244;59.940;30.280;2023-06-01T12:04:22;100660.50;;;22.09;42.91
41513;BME280;27244;59.940;30.280;2023-06-01T12:06:51;100664.19;;;22.06;42.55
41513;BME280;27244;59.940;30.280;2023-06-01T12:09:19;100652.16;;;22.05;42.24
41513;BME280;27244;59.940;30.280;2023-06-01T12:11:46;100655.41;;;22.04;42.74
41513;BME280;27244;59.940;30.280;2023-06-01T12:14:14;100664.19;;;22.06;42.46
41513;BME280;27244;59.940;30.280;2023-06-01T12:16:56;100666.78;;;22.17;42.05
41513;BME280;27244;59.940;30.280;2023-06-01T12:19:25;100652.50;;;22.07;42.40
41513;BME280;27244;59.940;30.280;2023-06-01T12:21:55;100648.97;;;22.03;42.21
41513;BME280;27244;59.940;30.280;2023-06-01T12:24:26;100651.72;;;22.07;42.30
41513;BME280;27244;59.940;30.280;2023-06-01T12:26:54;100666.22;;;22.05;42.72
41513;BME280;27244;59.940;30.280;2023-06-01T12:29:35;100665.97;;;22.16;42.39
41513;BME280;27244;59.940;30.280;2023-06-01T12:32:02;100671.38;;;22.07;42.69
41513;BME280;27244;59.940;30.280;2023-06-01T12:34:31;100683.41;;;22.07;42.55
41513;BME280;27244;59.940;30.280;2023-06-01T12:36:58;100663.91;;;22.00;42.37
41513;BME280;27244;59.940;30.280;2023-06-01T12:39:34;100674.47;;;22.13;42.27
41513;BME280;27244;59.940;30.280;2023-06-01T12:42:02;100671.03;;;22.05;42.25
41513;BME280;27244;59.940;30.280;2023-06-01T12:44:30;100677.88;;;22.04;42.24
41513;BME280;27244;59.940;30.280;2023-06-01T12:46:59;100684.28;;;22.04;42.16
41513;BME280;27244;59.940;30.280;2023-06-01T12:49:26;100683.50;;;22.04;42.44
41513;BME280;27244;59.940;30.280;2023-06-01T12:51:55;100687.47;;;22.06;42.56
41513;BME280;27244;59.940;30.280;2023-06-01T12:54:22;100688.69;;;22.05;42.31
41513;BME280;27244;59.940;30.280;2023-06-01T12:56:49;100699.84;;;22.09;43.75
41513;BME280;27244;59.940;30.280;2023-06-01T12:59:16;100695.75;;;22.14;43.34